createdAt,value
2019-02-23T00:00:22.840Z,931.37
2019-02-23T00:01:22.804Z,931.38
2019-02-23T00:02:22.752Z,931.41
2019-02-23T00:03:22.704Z,931.45
2019-02-23T00:04:22.659Z,931.50
2019-02-23T00:05:22.614Z,931.48
2019-02-23T00:06:29.767Z,931.43
2019-02-23T00:07:22.526Z,931.47
2019-02-23T00:08:22.481Z,931.45
2019-02-23T00:09:22.437Z,931.44
2019-02-23T00:10:22.390Z,931.41
2019-02-23T00:11:22.340Z,931.41
2019-02-23T00:12:22.306Z,931.44
2019-02-23T00:13:22.249Z,931.44
2019-02-23T00:14:22.206Z,931.47
2019-02-23T00:15:22.169Z,931.48
2019-02-23T00:16:22.114Z,931.47
2019-02-23T00:17:22.141Z,931.50
2019-02-23T00:18:22.027Z,931.50
2019-02-23T00:19:25.146Z,931.49
2019-02-23T00:20:21.937Z,931.49
2019-02-23T00:21:21.889Z,931.46
2019-02-23T00:22:21.844Z,931.49
2019-02-23T00:23:21.796Z,931.53
2019-02-23T00:24:21.752Z,931.56
2019-02-23T00:25:21.708Z,931.58
2019-02-23T00:26:21.671Z,931.60
2019-02-23T00:27:21.611Z,931.61
2019-02-23T00:28:21.568Z,931.63
2019-02-23T00:29:21.521Z,931.59
2019-02-23T00:30:21.481Z,931.60
2019-02-23T00:31:21.430Z,931.58
2019-02-23T00:32:21.388Z,931.59
2019-02-23T00:33:21.337Z,931.64
2019-02-23T00:34:21.297Z,931.61
2019-02-23T00:35:21.252Z,931.60
2019-02-23T00:36:21.202Z,931.61
2019-02-23T00:37:21.156Z,931.62
2019-02-23T00:38:21.116Z,931.64
2019-02-23T00:39:21.066Z,931.60
2019-02-23T00:40:21.023Z,931.66
2019-02-23T00:41:20.980Z,931.62
2019-02-23T00:42:20.931Z,931.59
2019-02-23T00:43:20.889Z,931.59
2019-02-23T00:44:20.838Z,931.61
2019-02-23T00:45:20.795Z,931.57
2019-02-23T00:46:20.747Z,931.60
2019-02-23T00:47:20.702Z,931.61
2019-02-23T00:48:20.659Z,931.65
2019-02-23T00:49:20.611Z,931.66
2019-02-23T00:50:20.565Z,931.64
2019-02-23T00:51:20.527Z,931.67
2019-02-23T00:52:20.473Z,931.71
2019-02-23T00:53:20.427Z,931.67
2019-02-23T00:54:20.387Z,931.67
2019-02-23T00:55:20.340Z,931.68
2019-02-23T00:56:20.295Z,931.74
2019-02-23T00:57:20.248Z,931.75
2019-02-23T00:58:20.202Z,931.71
2019-02-23T00:59:20.154Z,931.78
2019-02-23T01:00:20.109Z,931.78
2019-02-23T01:01:20.065Z,931.79
2019-02-23T01:02:20.021Z,931.77
2019-02-23T01:03:19.972Z,931.80
2019-02-23T01:04:19.928Z,931.81
2019-02-23T01:05:19.885Z,931.76
2019-02-23T01:06:19.835Z,931.78
2019-02-23T01:07:19.792Z,931.75
2019-02-23T01:08:19.747Z,931.75
2019-02-23T01:09:19.703Z,931.77
2019-02-23T01:10:19.739Z,931.75
2019-02-23T01:11:19.607Z,931.75
2019-02-23T01:12:19.565Z,931.74
2019-02-23T01:13:19.516Z,931.75
2019-02-23T01:14:19.472Z,931.78
2019-02-23T01:15:19.432Z,931.79
2019-02-23T01:16:19.448Z,931.76
2019-02-23T01:17:19.351Z,931.77
2019-02-23T01:18:19.290Z,931.71
2019-02-23T01:19:19.241Z,931.67
2019-02-23T01:20:19.197Z,931.63
2019-02-23T01:21:19.156Z,931.60
2019-02-23T01:22:19.109Z,931.58
2019-02-23T01:23:19.062Z,931.52
2019-02-23T01:24:19.015Z,931.54
2019-02-23T01:25:18.977Z,931.54
2019-02-23T01:26:18.924Z,931.53
2019-02-23T01:27:18.879Z,931.56
2019-02-23T01:28:18.830Z,931.58
2019-02-23T01:29:18.790Z,931.58
2019-02-23T01:30:18.745Z,931.60
2019-02-23T01:31:18.700Z,931.59
2019-02-23T01:32:18.652Z,931.65
2019-02-23T01:33:18.607Z,931.66
2019-02-23T01:34:18.564Z,931.68
2019-02-23T01:35:18.516Z,931.74
2019-02-23T01:36:18.470Z,931.70
2019-02-23T01:37:18.427Z,931.76
2019-02-23T01:38:18.382Z,931.74
2019-02-23T01:39:18.335Z,931.80
2019-02-23T01:40:18.289Z,931.71
2019-02-23T01:41:18.239Z,931.71
2019-02-23T01:42:18.203Z,931.69
2019-02-23T01:43:18.150Z,931.69
2019-02-23T01:44:18.110Z,931.71
2019-02-23T01:45:18.059Z,931.71
2019-02-23T01:46:18.016Z,931.68
2019-02-23T01:47:17.970Z,931.63
2019-02-23T01:48:17.923Z,931.62
2019-02-23T01:49:17.874Z,931.58
2019-02-23T01:50:17.827Z,931.62
2019-02-23T01:51:17.781Z,931.59
2019-02-23T01:52:17.743Z,931.57
2019-02-23T01:53:17.691Z,931.59
2019-02-23T01:54:17.652Z,931.62
2019-02-23T01:55:17.605Z,931.59
2019-02-23T01:56:17.568Z,931.64
2019-02-23T01:57:17.509Z,931.61
2019-02-23T01:58:17.463Z,931.58
2019-02-23T01:59:17.421Z,931.59
2019-02-23T02:00:17.375Z,931.56
2019-02-23T02:01:17.329Z,931.56
2019-02-23T02:02:17.284Z,931.54
2019-02-23T02:03:17.238Z,931.49
2019-02-23T02:04:17.192Z,931.51
2019-02-23T02:05:17.147Z,931.56
2019-02-23T02:06:17.098Z,931.54
2019-02-23T02:07:17.056Z,931.53
2019-02-23T02:08:17.009Z,931.50
2019-02-23T02:09:16.961Z,931.54
2019-02-23T02:10:16.916Z,931.53
2019-02-23T02:11:16.872Z,931.50
2019-02-23T02:12:16.825Z,931.54
2019-02-23T02:13:16.780Z,931.57
2019-02-23T02:14:16.732Z,931.59
2019-02-23T02:15:16.689Z,931.57
2019-02-23T02:16:16.642Z,931.55
2019-02-23T02:17:16.601Z,931.56
2019-02-23T02:18:16.555Z,931.55
2019-02-23T02:19:16.518Z,931.55
2019-02-23T02:20:16.465Z,931.52
2019-02-23T02:21:16.418Z,931.49
2019-02-23T02:22:16.368Z,931.46
2019-02-23T02:23:16.327Z,931.44
2019-02-23T02:24:16.277Z,931.45
2019-02-23T02:25:16.233Z,931.43
2019-02-23T02:26:16.190Z,931.47
2019-02-23T02:27:16.138Z,931.50
2019-02-23T02:28:16.099Z,931.50
2019-02-23T02:29:16.049Z,931.49
2019-02-23T02:30:16.003Z,931.50
2019-02-23T02:31:15.973Z,931.53
2019-02-23T02:32:15.912Z,931.55
2019-02-23T02:33:15.864Z,931.54
2019-02-23T02:34:15.824Z,931.51
2019-02-23T02:35:15.778Z,931.49
2019-02-23T02:36:15.731Z,931.49
2019-02-23T02:37:15.688Z,931.44
2019-02-23T02:38:15.639Z,931.40
2019-02-23T02:39:15.592Z,931.35
2019-02-23T02:40:15.558Z,931.35
2019-02-23T02:41:15.504Z,931.37
2019-02-23T02:42:15.454Z,931.39
2019-02-23T02:43:15.413Z,931.37
2019-02-23T02:44:15.367Z,931.32
2019-02-23T02:45:15.316Z,931.32
2019-02-23T02:46:15.276Z,931.26
2019-02-23T02:47:15.225Z,931.27
2019-02-23T02:48:15.185Z,931.24
2019-02-23T02:49:15.135Z,931.21
2019-02-23T02:50:23.839Z,931.21
2019-02-23T02:51:15.049Z,931.17
2019-02-23T02:52:14.997Z,931.17
2019-02-23T02:53:14.956Z,931.07
2019-02-23T02:54:14.910Z,931.06
2019-02-23T02:55:14.864Z,931.06
2019-02-23T02:56:14.825Z,931.06
2019-02-23T02:57:14.772Z,931.05
2019-02-23T02:58:14.721Z,931.08
2019-02-23T02:59:14.678Z,931.10
2019-02-23T03:00:14.631Z,931.08
2019-02-23T03:01:14.590Z,931.11
2019-02-23T03:02:14.544Z,931.08
2019-02-23T03:03:14.498Z,931.10
2019-02-23T03:04:14.453Z,931.05
2019-02-23T03:05:14.405Z,931.06
2019-02-23T03:06:14.357Z,931.07
2019-02-23T03:07:14.313Z,931.04
2019-02-23T03:08:14.263Z,930.99
2019-02-23T03:09:14.223Z,931.00
2019-02-23T03:10:14.178Z,930.99
2019-02-23T03:11:14.131Z,930.96
2019-02-23T03:12:14.084Z,930.95
2019-02-23T03:13:14.042Z,930.96
2019-02-23T03:14:13.995Z,930.98
2019-02-23T03:15:13.947Z,930.95
2019-02-23T03:16:13.902Z,930.90
2019-02-23T03:17:13.852Z,930.96
2019-02-23T03:18:13.814Z,930.94
2019-02-23T03:19:13.765Z,930.96
2019-02-23T03:20:13.720Z,930.93
2019-02-23T03:21:13.669Z,930.98
2019-02-23T03:22:13.623Z,930.99
2019-02-23T03:23:13.583Z,931.01
2019-02-23T03:24:13.534Z,931.06
2019-02-23T03:25:13.492Z,931.09
2019-02-23T03:26:13.445Z,931.05
2019-02-23T03:27:13.400Z,931.04
2019-02-23T03:28:13.355Z,931.04
2019-02-23T03:29:13.304Z,931.04
2019-02-23T03:30:13.297Z,931.02
2019-02-23T03:31:13.217Z,931.02
2019-02-23T03:32:13.172Z,930.99
2019-02-23T03:33:13.127Z,930.98
2019-02-23T03:34:13.081Z,930.94
2019-02-23T03:35:13.031Z,930.93
2019-02-23T03:36:12.990Z,930.90
2019-02-23T03:37:12.939Z,930.85
2019-02-23T03:38:12.891Z,930.85
2019-02-23T03:39:12.848Z,930.82
2019-02-23T03:40:12.801Z,930.82
2019-02-23T03:41:12.755Z,930.82
2019-02-23T03:42:12.711Z,930.80
2019-02-23T03:43:12.666Z,930.81
2019-02-23T03:44:12.622Z,930.78
2019-02-23T03:45:12.576Z,930.81
2019-02-23T03:46:12.526Z,930.77
2019-02-23T03:47:12.483Z,930.77
2019-02-23T03:48:12.435Z,930.78
2019-02-23T03:49:12.392Z,930.77
2019-02-23T03:50:12.345Z,930.72
2019-02-23T03:51:12.300Z,930.70
2019-02-23T03:52:12.250Z,930.68
2019-02-23T03:53:12.211Z,930.70
2019-02-23T03:54:12.160Z,930.72
2019-02-23T03:55:12.112Z,930.72
2019-02-23T03:56:12.070Z,930.74
2019-02-23T03:57:12.024Z,930.71
2019-02-23T03:58:11.978Z,930.70
2019-02-23T03:59:11.929Z,930.69
2019-02-23T04:00:11.883Z,930.65
2019-02-23T04:01:11.843Z,930.69
2019-02-23T04:02:11.792Z,930.62
2019-02-23T04:03:11.748Z,930.59
2019-02-23T04:04:11.701Z,930.56
2019-02-23T04:05:11.657Z,930.55
2019-02-23T04:06:11.610Z,930.54
2019-02-23T04:07:11.562Z,930.50
2019-02-23T04:08:11.527Z,930.51
2019-02-23T04:09:11.475Z,930.49
2019-02-23T04:10:11.426Z,930.50
2019-02-23T04:11:11.385Z,930.44
2019-02-23T04:12:11.333Z,930.48
2019-02-23T04:13:11.291Z,930.50
2019-02-23T04:14:11.244Z,930.53
2019-02-23T04:15:11.202Z,930.50
2019-02-23T04:16:11.154Z,930.53
2019-02-23T04:17:11.112Z,930.53
2019-02-23T04:18:11.063Z,930.52
2019-02-23T04:19:11.015Z,930.51
2019-02-23T04:20:10.970Z,930.47
2019-02-23T04:21:10.920Z,930.45
2019-02-23T04:22:10.876Z,930.44
2019-02-23T04:23:10.835Z,930.42
2019-02-23T04:24:10.786Z,930.43
2019-02-23T04:25:10.746Z,930.41
2019-02-23T04:26:10.689Z,930.42
2019-02-23T04:27:10.650Z,930.38
2019-02-23T04:28:10.603Z,930.39
2019-02-23T04:29:10.557Z,930.36
2019-02-23T04:30:10.509Z,930.36
2019-02-23T04:31:10.463Z,930.31
2019-02-23T04:32:10.418Z,930.29
2019-02-23T04:33:10.374Z,930.27
2019-02-23T04:34:10.324Z,930.27
2019-02-23T04:35:10.280Z,930.19
2019-02-23T04:36:10.234Z,930.23
2019-02-23T04:37:10.200Z,930.18
2019-02-23T04:38:10.147Z,930.15
2019-02-23T04:39:10.092Z,930.16
2019-02-23T04:40:10.052Z,930.18
2019-02-23T04:41:10.004Z,930.17
2019-02-23T04:42:09.955Z,930.16
2019-02-23T04:43:09.911Z,930.18
2019-02-23T04:44:09.869Z,930.14
2019-02-23T04:45:09.821Z,930.17
2019-02-23T04:46:09.773Z,930.17
2019-02-23T04:47:09.727Z,930.15
2019-02-23T04:48:09.694Z,930.14
2019-02-23T04:49:09.636Z,930.15
2019-02-23T04:50:09.589Z,930.10
2019-02-23T04:51:14.506Z,930.11
2019-02-23T04:52:09.497Z,930.10
2019-02-23T04:53:09.457Z,930.06
2019-02-23T04:54:09.409Z,930.04
2019-02-23T04:55:09.364Z,930.09
2019-02-23T04:56:09.319Z,930.08
2019-02-23T04:57:09.269Z,930.02
2019-02-23T04:58:09.225Z,930.05
2019-02-23T04:59:09.180Z,930.00
2019-02-23T05:00:09.139Z,930.03
2019-02-23T05:01:09.085Z,930.00
2019-02-23T05:02:09.039Z,929.98
2019-02-23T05:03:08.997Z,929.94
2019-02-23T05:04:08.946Z,929.94
2019-02-23T05:05:08.900Z,929.94
2019-02-23T05:06:08.853Z,929.89
2019-02-23T05:07:08.808Z,929.89
2019-02-23T05:08:08.763Z,929.85
2019-02-23T05:09:08.719Z,929.84
2019-02-23T05:10:08.676Z,929.82
2019-02-23T05:11:08.631Z,929.80
2019-02-23T05:12:08.578Z,929.76
2019-02-23T05:13:08.534Z,929.80
2019-02-23T05:14:08.506Z,929.78
2019-02-23T05:15:08.447Z,929.75
2019-02-23T05:16:08.392Z,929.72
2019-02-23T05:17:08.356Z,929.70
2019-02-23T05:18:08.307Z,929.66
2019-02-23T05:19:08.255Z,929.68
2019-02-23T05:20:08.213Z,929.67
2019-02-23T05:21:08.169Z,929.69
2019-02-23T05:22:08.118Z,929.67
2019-02-23T05:23:08.072Z,929.64
2019-02-23T05:24:08.029Z,929.59
2019-02-23T05:25:07.985Z,929.56
2019-02-23T05:26:07.937Z,929.53
2019-02-23T05:27:07.887Z,929.53
2019-02-23T05:28:07.846Z,929.53
2019-02-23T05:29:07.794Z,929.55
2019-02-23T05:30:07.753Z,929.55
2019-02-23T05:31:07.704Z,929.54
2019-02-23T05:32:07.677Z,929.49
2019-02-23T05:33:07.613Z,929.52
2019-02-23T05:34:07.571Z,929.49
2019-02-23T05:35:07.525Z,929.48
2019-02-23T05:36:07.475Z,929.53
2019-02-23T05:37:07.431Z,929.48
2019-02-23T05:38:07.381Z,929.52
2019-02-23T05:39:07.339Z,929.50
2019-02-23T05:40:07.290Z,929.50
2019-02-23T05:41:07.249Z,929.49
2019-02-23T05:42:07.204Z,929.48
2019-02-23T05:43:07.150Z,929.49
2019-02-23T05:44:07.105Z,929.40
2019-02-23T05:45:07.060Z,929.43
2019-02-23T05:46:07.021Z,929.43
2019-02-23T05:47:06.972Z,929.45
2019-02-23T05:48:06.922Z,929.41
2019-02-23T05:49:06.879Z,929.47
2019-02-23T05:50:06.828Z,929.43
2019-02-23T05:51:06.787Z,929.39
2019-02-23T05:52:06.736Z,929.37
2019-02-23T05:53:06.690Z,929.41
2019-02-23T05:54:06.644Z,929.40
2019-02-23T05:55:06.601Z,929.42
2019-02-23T05:56:06.554Z,929.42
2019-02-23T05:57:06.509Z,929.43
2019-02-23T05:58:06.462Z,929.44
2019-02-23T05:59:06.423Z,929.45
2019-02-23T06:00:06.371Z,929.48
2019-02-23T06:01:06.322Z,929.42
2019-02-23T06:02:06.279Z,929.42
2019-02-23T06:03:06.233Z,929.44
2019-02-23T06:04:06.192Z,929.46
2019-02-23T06:05:06.145Z,929.47
2019-02-23T06:06:06.099Z,929.45
2019-02-23T06:07:06.052Z,929.48
2019-02-23T06:08:06.008Z,929.44
2019-02-23T06:09:05.955Z,929.46
2019-02-23T06:10:05.912Z,929.47
2019-02-23T06:11:05.865Z,929.46
2019-02-23T06:12:05.836Z,929.49
2019-02-23T06:13:05.776Z,929.49
2019-02-23T06:14:05.724Z,929.46
2019-02-23T06:15:05.679Z,929.42
2019-02-23T06:16:05.641Z,929.42
2019-02-23T06:17:05.584Z,929.46
2019-02-23T06:18:05.538Z,929.45
2019-02-23T06:19:05.498Z,929.43
2019-02-23T06:20:05.452Z,929.42
2019-02-23T06:21:05.402Z,929.44
2019-02-23T06:22:05.368Z,929.48
2019-02-23T06:23:05.310Z,929.50
2019-02-23T06:24:05.269Z,929.49
2019-02-23T06:25:05.217Z,929.51
2019-02-23T06:26:05.173Z,929.55
2019-02-23T06:27:05.124Z,929.55
2019-02-23T06:28:05.079Z,929.55
2019-02-23T06:29:05.037Z,929.56
2019-02-23T06:30:04.989Z,929.57
2019-02-23T06:31:04.944Z,929.60
2019-02-23T06:32:04.902Z,929.49
2019-02-23T06:33:04.849Z,929.56
2019-02-23T06:34:15.574Z,929.56
2019-02-23T06:35:04.757Z,929.57
2019-02-23T06:36:04.713Z,929.56
2019-02-23T06:37:04.666Z,929.58
2019-02-23T06:38:04.620Z,929.56
2019-02-23T06:39:04.575Z,929.55
2019-02-23T06:40:04.528Z,929.53
2019-02-23T06:41:04.489Z,929.50
2019-02-23T06:42:04.438Z,929.48
2019-02-23T06:43:04.412Z,929.46
2019-02-23T06:44:04.345Z,929.43
2019-02-23T06:45:04.296Z,929.45
2019-02-23T06:46:04.257Z,929.48
2019-02-23T06:47:04.203Z,929.48
2019-02-23T06:48:04.159Z,929.48
2019-02-23T06:49:04.115Z,929.43
2019-02-23T06:50:04.071Z,929.41
2019-02-23T06:51:04.018Z,929.42
2019-02-23T06:52:04.786Z,929.41
2019-02-23T06:53:03.931Z,929.40
2019-02-23T06:54:03.884Z,929.40
2019-02-23T06:55:03.833Z,929.35
2019-02-23T06:56:03.790Z,929.35
2019-02-23T06:57:03.747Z,929.36
2019-02-23T06:58:03.702Z,929.34
2019-02-23T06:59:03.651Z,929.29
2019-02-23T07:00:03.604Z,929.29
2019-02-23T07:01:03.562Z,929.31
2019-02-23T07:02:03.516Z,929.31
2019-02-23T07:03:03.468Z,929.32
2019-02-23T07:04:03.421Z,929.22
2019-02-23T07:05:03.377Z,929.22
2019-02-23T07:06:03.327Z,929.21
2019-02-23T07:07:03.290Z,929.18
2019-02-23T07:08:03.237Z,929.20
2019-02-23T07:09:03.190Z,929.23
2019-02-23T07:10:03.152Z,929.24
2019-02-23T07:11:03.102Z,929.27
2019-02-23T07:12:03.054Z,929.27
2019-02-23T07:13:03.005Z,929.26
2019-02-23T07:14:02.966Z,929.28
2019-02-23T07:15:02.920Z,929.25
2019-02-23T07:16:02.867Z,929.29
2019-02-23T07:17:05.019Z,929.29
2019-02-23T07:18:02.777Z,929.28
2019-02-23T07:19:02.726Z,929.28
2019-02-23T07:20:02.682Z,929.26
2019-02-23T07:21:02.636Z,929.24
2019-02-23T07:22:02.587Z,929.26
2019-02-23T07:23:02.543Z,929.29
2019-02-23T07:24:02.497Z,929.31
2019-02-23T07:25:02.453Z,929.35
2019-02-23T07:26:02.404Z,929.30
2019-02-23T07:27:02.357Z,929.30
2019-02-23T07:28:02.315Z,929.28
2019-02-23T07:29:02.268Z,929.29
2019-02-23T07:30:02.221Z,929.26
2019-02-23T07:31:02.175Z,929.21
2019-02-23T07:32:02.126Z,929.15
2019-02-23T07:33:02.091Z,929.22
2019-02-23T07:34:02.040Z,929.19
2019-02-23T07:35:01.992Z,929.24
2019-02-23T07:36:01.949Z,929.20
2019-02-23T07:37:01.899Z,929.20
2019-02-23T07:38:01.848Z,929.18
2019-02-23T07:39:01.805Z,929.18
2019-02-23T07:40:01.761Z,929.22
2019-02-23T07:41:01.717Z,929.22
2019-02-23T07:42:01.664Z,929.21
2019-02-23T07:43:01.619Z,929.21
2019-02-23T07:44:03.381Z,929.22
2019-02-23T07:45:01.528Z,929.21
2019-02-23T07:46:01.485Z,929.24
2019-02-23T07:47:01.435Z,929.23
2019-02-23T07:48:01.394Z,929.24
2019-02-23T07:49:01.341Z,929.21
2019-02-23T07:50:01.299Z,929.20
2019-02-23T07:51:01.252Z,929.20
2019-02-23T07:52:01.207Z,929.20
2019-02-23T07:53:01.161Z,929.21
2019-02-23T07:54:01.118Z,929.21
2019-02-23T07:55:01.063Z,929.21
2019-02-23T07:56:01.019Z,929.22
2019-02-23T07:57:00.977Z,929.21
2019-02-23T07:58:00.929Z,929.23
2019-02-23T07:59:00.881Z,929.23
2019-02-23T08:00:00.892Z,929.19
2019-02-23T08:01:00.794Z,929.18
2019-02-23T08:02:00.742Z,929.19
2019-02-23T08:03:00.697Z,929.21
2019-02-23T08:04:00.651Z,929.16
2019-02-23T08:05:00.602Z,929.17
2019-02-23T08:06:00.557Z,929.15
2019-02-23T08:07:00.514Z,929.13
2019-02-23T08:08:00.472Z,929.13
2019-02-23T08:09:00.419Z,929.15
2019-02-23T08:10:00.371Z,929.13
2019-02-23T08:11:00.325Z,929.14
2019-02-23T08:12:00.282Z,929.13
2019-02-23T08:13:00.233Z,929.16
2019-02-23T08:14:00.193Z,929.15
2019-02-23T08:15:00.305Z,929.14
2019-02-23T08:16:00.093Z,929.20
2019-02-23T08:17:00.052Z,929.23
2019-02-23T08:18:00.002Z,929.21
2019-02-23T08:18:59.960Z,929.22
2019-02-23T08:19:59.914Z,929.20
2019-02-23T08:20:59.868Z,929.18
2019-02-23T08:21:59.823Z,929.20
2019-02-23T08:22:59.771Z,929.15
2019-02-23T08:23:59.727Z,929.20
2019-02-23T08:24:59.680Z,929.17
2019-02-23T08:25:59.631Z,929.16
2019-02-23T08:26:59.585Z,929.15
2019-02-23T08:27:59.542Z,929.19
2019-02-23T08:28:59.497Z,929.18
2019-02-23T08:29:59.448Z,929.15
2019-02-23T08:30:59.408Z,929.12
2019-02-23T08:31:59.355Z,929.13
2019-02-23T08:32:59.314Z,929.13
2019-02-23T08:33:59.260Z,929.15
2019-02-23T08:34:59.216Z,929.14
2019-02-23T08:35:59.173Z,929.13
2019-02-23T08:36:59.124Z,929.17
2019-02-23T08:37:59.078Z,929.13
2019-02-23T08:38:59.035Z,929.14
2019-02-23T08:39:58.987Z,929.13
2019-02-23T08:40:58.943Z,929.07
2019-02-23T08:41:58.899Z,929.10
2019-02-23T08:42:58.847Z,929.05
2019-02-23T08:43:58.804Z,929.01
2019-02-23T08:44:58.758Z,929.03
2019-02-23T08:45:58.707Z,928.98
2019-02-23T08:46:58.662Z,929.00
2019-02-23T08:47:58.616Z,929.01
2019-02-23T08:48:58.569Z,928.98
2019-02-23T08:49:58.526Z,928.99
2019-02-23T08:50:58.478Z,928.98
2019-02-23T08:51:58.431Z,929.00
2019-02-23T08:52:58.391Z,928.98
2019-02-23T08:53:58.339Z,929.03
2019-02-23T08:54:58.295Z,929.06
2019-02-23T08:55:58.248Z,929.06
2019-02-23T08:56:58.204Z,929.11
2019-02-23T08:57:58.154Z,929.10
2019-02-23T08:58:58.110Z,929.16
2019-02-23T08:59:58.062Z,929.12
2019-02-23T09:00:58.017Z,929.15
2019-02-23T09:01:57.972Z,929.17
2019-02-23T09:02:57.921Z,929.17
2019-02-23T09:03:57.878Z,929.16
2019-02-23T09:04:57.830Z,929.15
2019-02-23T09:05:57.785Z,929.17
2019-02-23T09:06:57.737Z,929.15
2019-02-23T09:07:57.691Z,929.17
2019-02-23T09:08:57.646Z,929.14
2019-02-23T09:09:57.601Z,929.14
2019-02-23T09:10:57.551Z,929.14
2019-02-23T09:11:57.506Z,929.14
2019-02-23T09:12:57.464Z,929.20
2019-02-23T09:13:57.418Z,929.22
2019-02-23T09:14:57.367Z,929.24
2019-02-23T09:15:57.321Z,929.28
2019-02-23T09:16:57.279Z,929.30
2019-02-23T09:17:57.229Z,929.32
2019-02-23T09:18:57.187Z,929.33
2019-02-23T09:19:57.146Z,929.33
2019-02-23T09:20:57.088Z,929.34
2019-02-23T09:21:57.048Z,929.31
2019-02-23T09:23:00.128Z,929.35
2019-02-23T09:23:56.968Z,929.43
2019-02-23T09:24:56.907Z,929.49
2019-02-23T09:25:57.832Z,929.48
2019-02-23T09:26:56.818Z,929.52
2019-02-23T09:27:56.772Z,929.49
2019-02-23T09:28:56.727Z,929.42
2019-02-23T09:29:56.676Z,929.39
2019-02-23T09:30:56.629Z,929.36
2019-02-23T09:31:56.581Z,929.46
2019-02-23T09:32:56.537Z,929.50
2019-02-23T09:33:56.491Z,929.50
2019-02-23T09:34:56.449Z,929.46
2019-02-23T09:35:56.415Z,929.45
2019-02-23T09:36:56.364Z,929.45
2019-02-23T09:37:56.312Z,929.44
2019-02-23T09:38:56.263Z,929.48
2019-02-23T09:39:56.217Z,929.50
2019-02-23T09:40:56.174Z,929.49
2019-02-23T09:42:07.045Z,929.56
2019-02-23T09:42:56.082Z,929.50
2019-02-23T09:43:56.042Z,929.54
2019-02-23T09:44:55.997Z,929.54
2019-02-23T09:45:55.951Z,929.63
2019-02-23T09:46:55.908Z,929.75
2019-02-23T09:47:55.861Z,929.76
2019-02-23T09:48:56.447Z,929.88
2019-02-23T09:49:55.779Z,929.93
2019-02-23T09:50:55.730Z,929.96
2019-02-23T09:51:55.691Z,930.08
2019-02-23T09:52:55.648Z,930.10
2019-02-23T09:53:55.605Z,930.11
2019-02-23T09:54:55.561Z,930.22
2019-02-23T09:55:55.519Z,930.30
2019-02-23T09:56:55.481Z,930.41
2019-02-23T09:57:55.441Z,930.58
2019-02-23T09:58:55.399Z,930.77
2019-02-23T09:59:55.359Z,930.90
2019-02-23T10:00:55.324Z,931.01
2019-02-23T10:01:55.284Z,931.07
2019-02-23T10:02:55.247Z,931.11
2019-02-23T10:03:55.211Z,931.16
2019-02-23T10:04:55.172Z,931.19
2019-02-23T10:05:55.139Z,931.26
2019-02-23T10:06:55.096Z,931.30
2019-02-23T10:07:55.058Z,931.38
2019-02-23T10:08:55.023Z,931.42
2019-02-23T10:09:54.985Z,931.50
2019-02-23T10:10:57.502Z,931.52
2019-02-23T10:11:54.916Z,931.68
2019-02-23T10:12:54.881Z,931.75
2019-02-23T10:13:54.843Z,931.49
2019-02-23T10:14:54.813Z,930.81
2019-02-23T10:15:54.777Z,931.04
2019-02-23T10:16:54.746Z,931.44
2019-02-23T10:17:54.712Z,931.63
2019-02-23T10:18:54.686Z,931.72
2019-02-23T10:19:54.646Z,931.02
2019-02-23T10:20:54.610Z,930.92
2019-02-23T10:21:54.577Z,931.58
2019-02-23T10:22:54.556Z,931.61
2019-02-23T10:23:54.507Z,931.60
2019-02-23T10:24:54.474Z,931.53
2019-02-23T10:25:54.442Z,931.47
2019-02-23T10:26:54.411Z,931.48
2019-02-23T10:27:54.375Z,931.37
2019-02-23T10:28:54.347Z,931.35
2019-02-23T10:29:54.316Z,931.41
2019-02-23T10:30:54.282Z,931.44
2019-02-23T10:31:54.257Z,931.41
2019-02-23T10:32:54.220Z,931.43
2019-02-23T10:33:54.191Z,931.47
2019-02-23T10:34:54.156Z,931.54
2019-02-23T10:35:54.130Z,931.53
2019-02-23T10:36:54.102Z,931.53
2019-02-23T10:37:54.067Z,931.57
2019-02-23T10:38:54.042Z,931.58
2019-02-23T10:39:54.006Z,931.63
2019-02-23T10:40:53.981Z,931.70
2019-02-23T10:41:53.952Z,931.72
2019-02-23T10:42:53.918Z,931.81
2019-02-23T10:43:53.893Z,931.91
2019-02-23T10:44:53.862Z,932.03
2019-02-23T10:45:53.833Z,932.16
2019-02-23T10:46:53.802Z,932.46
2019-02-23T10:47:53.775Z,933.29
2019-02-23T10:48:53.748Z,934.79
2019-02-23T10:49:53.718Z,935.16
2019-02-23T10:50:53.689Z,934.05
2019-02-23T10:51:53.658Z,933.39
2019-02-23T10:52:53.630Z,933.38
2019-02-23T10:53:53.603Z,933.41
2019-02-23T10:54:53.579Z,934.01
2019-02-23T10:55:53.549Z,936.29
2019-02-23T10:56:53.523Z,936.82
2019-02-23T10:57:53.492Z,934.24
2019-02-23T10:58:53.463Z,933.13
2019-02-23T10:59:53.436Z,931.95
2019-02-23T11:00:53.403Z,930.66
2019-02-23T11:01:53.376Z,930.40
2019-02-23T11:02:53.356Z,930.37
2019-02-23T11:03:53.318Z,930.40
2019-02-23T11:04:53.288Z,930.38
2019-02-23T11:05:53.260Z,930.35
2019-02-23T11:06:53.266Z,930.37
2019-02-23T11:07:53.200Z,930.43
2019-02-23T11:08:53.164Z,930.36
2019-02-23T11:09:53.133Z,930.39
2019-02-23T11:10:53.116Z,930.44
2019-02-23T11:11:53.065Z,930.45
2019-02-23T11:12:53.055Z,930.45
2019-02-23T11:13:52.997Z,930.48
2019-02-23T11:14:52.960Z,930.46
2019-02-23T11:15:52.936Z,930.43
2019-02-23T11:16:52.890Z,930.41
2019-02-23T11:17:52.858Z,930.48
2019-02-23T11:18:52.821Z,930.47
2019-02-23T11:19:52.788Z,930.45
2019-02-23T11:20:52.750Z,930.44
2019-02-23T11:21:52.709Z,930.46
2019-02-23T11:22:52.676Z,930.45
2019-02-23T11:23:52.635Z,930.48
2019-02-23T11:24:52.600Z,930.46
2019-02-23T11:25:52.561Z,930.46
2019-02-23T11:26:52.523Z,930.49
2019-02-23T11:27:52.486Z,930.47
2019-02-23T11:28:52.448Z,930.45
2019-02-23T11:29:52.405Z,930.47
2019-02-23T11:30:52.369Z,930.48
2019-02-23T11:31:52.327Z,930.44
2019-02-23T11:32:52.289Z,930.46
2019-02-23T11:33:52.250Z,930.41
2019-02-23T11:34:52.211Z,930.38
2019-02-23T11:35:52.170Z,930.32
2019-02-23T11:36:52.128Z,930.38
2019-02-23T11:37:52.092Z,930.37
2019-02-23T11:38:52.051Z,930.33
2019-02-23T11:39:52.013Z,930.37
2019-02-23T11:40:51.970Z,930.36
2019-02-23T11:41:51.927Z,930.32
2019-02-23T11:42:51.889Z,930.36
2019-02-23T11:43:51.852Z,930.31
2019-02-23T11:44:51.807Z,930.30
2019-02-23T11:45:51.768Z,930.31
2019-02-23T11:46:59.823Z,930.34
2019-02-23T11:47:51.683Z,930.34
2019-02-23T11:48:51.649Z,930.28
2019-02-23T11:49:51.603Z,930.33
2019-02-23T11:50:51.560Z,930.36
2019-02-23T11:51:51.522Z,930.36
2019-02-23T11:52:51.480Z,930.34
2019-02-23T11:53:55.026Z,930.33
2019-02-23T11:54:51.399Z,930.36
2019-02-23T11:55:51.356Z,930.35
2019-02-23T11:56:51.316Z,930.29
2019-02-23T11:57:51.275Z,930.30
2019-02-23T11:58:51.229Z,930.34
2019-02-23T11:59:51.186Z,930.39
2019-02-23T12:00:51.150Z,930.32
2019-02-23T12:01:51.104Z,930.34
2019-02-23T12:02:52.831Z,930.34
2019-02-23T12:03:51.019Z,930.36
2019-02-23T12:04:50.978Z,930.34
2019-02-23T12:05:50.941Z,930.36
2019-02-23T12:06:50.895Z,930.35
2019-02-23T12:07:50.865Z,930.34
2019-02-23T12:08:50.815Z,930.34
2019-02-23T12:09:50.771Z,930.34
2019-02-23T12:10:50.730Z,930.34
2019-02-23T12:11:50.689Z,930.33
2019-02-23T12:12:50.647Z,930.35
2019-02-23T12:13:50.604Z,930.38
2019-02-23T12:14:50.559Z,930.37
2019-02-23T12:15:50.521Z,930.42
2019-02-23T12:16:50.479Z,930.36
2019-02-23T12:17:50.432Z,930.40
2019-02-23T12:18:50.395Z,930.42
2019-02-23T12:19:50.349Z,930.43
2019-02-23T12:20:50.309Z,930.40
2019-02-23T12:21:50.264Z,930.38
2019-02-23T12:22:50.225Z,930.39
2019-02-23T12:23:50.187Z,930.42
2019-02-23T12:24:50.139Z,930.40
2019-02-23T12:25:50.098Z,930.43
2019-02-23T12:26:50.055Z,930.45
2019-02-23T12:27:50.017Z,930.39